Time;durP1;ratioP1;P1;durP2;ratioP2;P2;SDS_P1;SDS_P2;PMS_P1;PMS_P2;Temp;Humidity;BMP_temperature;BMP_pressure;BME280_temperature;BME280_humidity;BME280_pressure;Samples;Min_cycle;Max_cycle;Signal;HPM_P1;HPM_P2
2022/10/13 00:01:09;;;;;;;;;;;11.00;86.30;;;;;;5027456;28;19924;-85
2022/10/13 00:03:35;;;;;;;;;;;11.00;86.10;;;;;;5027971;28;19925;-85
2022/10/13 00:06:03;;;;;;;;;;;11.10;85.90;;;;;;5025776;28;20396;-85
2022/10/13 00:08:29;;;;;;;;;;;11.20;85.90;;;;;;5032470;28;19944;-85
2022/10/13 00:10:54;;;;;;;;;;;11.10;85.70;;;;;;5031576;28;19913;-85
2022/10/13 00:13:20;;;;;;;;;;;11.10;85.60;;;;;;5037548;28;19917;-85
2022/10/13 00:15:46;;;;;;;;;;;11.20;85.60;;;;;;5037672;28;19960;-85
2022/10/13 00:18:12;;;;;;;;;;;11.10;85.50;;;;;;5039003;28;19908;-85
2022/10/13 00:20:41;;;;;;;;;;;11.10;85.50;;;;;;5038279;28;19913;-85
2022/10/13 00:23:07;;;;;;;;;;;11.20;85.70;;;;;;5045742;28;19910;-85
2022/10/13 00:25:33;;;;;;;;;;;11.20;85.70;;;;;;5037901;28;19928;-85
2022/10/13 00:27:58;;;;;;;;;;;11.10;85.70;;;;;;5083944;23;20421;-76
2022/10/13 00:30:23;;;;;;;;;;;11.10;85.60;;;;;;5005880;28;19936;-77
2022/10/13 00:32:49;;;;;;;;;;;11.20;85.80;;;;;;5003522;28;19964;-78
2022/10/13 00:35:14;;;;;;;;;;;11.10;85.80;;;;;;5007798;28;19976;-78
2022/10/13 00:37:40;;;;;;;;;;;11.10;85.80;;;;;;4994261;28;19925;-78
2022/10/13 00:40:06;;;;;;;;;;;11.10;85.90;;;;;;4988598;28;20558;-78
2022/10/13 00:42:31;;;;;;;;;;;11.00;86.00;;;;;;4987609;28;19960;-78
2022/10/13 00:45:03;;;;;;;;;;;11.00;86.30;;;;;;4986343;28;19946;-77
2022/10/13 00:47:34;;;;;;;;;;;11.00;86.30;;;;;;4988507;28;19922;-77
2022/10/13 00:50:00;;;;;;;;;;;11.00;86.30;;;;;;4985836;28;20012;-78
2022/10/13 00:52:26;;;;;;;;;;;10.90;86.40;;;;;;4986179;28;20004;-77
2022/10/13 00:54:52;;;;;;;;;;;10.90;86.30;;;;;;4990126;28;19914;-78
2022/10/13 00:57:18;;;;;;;;;;;10.90;86.30;;;;;;4983824;28;19914;-77
2022/10/13 00:59:43;;;;;;;;;;;10.90;86.40;;;;;;4988585;28;19914;-78
2022/10/13 01:02:09;;;;;;;;;;;10.90;86.40;;;;;;4993896;28;19947;-77
2022/10/13 01:04:39;;;;;;;;;;;10.80;86.40;;;;;;4989677;28;19922;-77
2022/10/13 01:07:05;;;;;;;;;;;10.80;86.40;;;;;;4988254;28;19960;-78
2022/10/13 01:09:36;;;;;;;;;;;10.80;86.50;;;;;;4986539;28;19918;-78
2022/10/13 01:12:13;;;;;;;;;;;10.70;86.50;;;;;;4985873;28;19924;-78
2022/10/13 01:14:46;;;;;;;;;;;10.70;86.60;;;;;;5001821;28;19967;-77
2022/10/13 01:17:28;;;;;;;;;;;10.70;86.60;;;;;;4986840;28;19914;-77
2022/10/13 01:20:12;;;;;;;;;;;10.70;86.80;;;;;;4984676;28;19926;-77
2022/10/13 01:22:44;;;;;;;;;;;10.70;86.90;;;;;;4984321;28;20432;-77
2022/10/13 01:25:27;;;;;;;;;;;10.70;86.90;;;;;;4986492;28;20381;-77
2022/10/13 01:28:02;;;;;;;;;;;10.60;86.90;;;;;;4982943;28;19925;-77
2022/10/13 01:30:29;;;;;;;;;;;10.60;86.80;;;;;;4985287;28;19918;-78
2022/10/13 01:33:13;;;;;;;;;;;10.60;87.00;;;;;;4988306;28;19921;-78
2022/10/13 01:35:54;;;;;;;;;;;10.60;86.90;;;;;;4989284;28;19921;-78
2022/10/13 01:38:32;;;;;;;;;;;10.60;87.00;;;;;;4989710;28;19917;-77
2022/10/13 01:41:04;;;;;;;;;;;10.60;86.80;;;;;;4990987;28;19959;-78
2022/10/13 01:43:44;;;;;;;;;;;10.60;86.90;;;;;;4990173;28;20353;-78
2022/10/13 01:46:23;;;;;;;;;;;10.60;86.80;;;;;;4990452;28;21124;-77
2022/10/13 01:48:50;;;;;;;;;;;10.60;86.90;;;;;;4989570;28;19921;-79
2022/10/13 01:51:17;;;;;;;;;;;10.60;86.80;;;;;;4990310;28;19917;-78
2022/10/13 01:53:44;;;;;;;;;;;10.70;86.80;;;;;;5006301;28;19914;-79
2022/10/13 01:56:09;;;;;;;;;;;10.70;86.70;;;;;;4993460;28;20008;-77
2022/10/13 01:58:35;;;;;;;;;;;10.70;86.80;;;;;;4988147;28;20424;-77
2022/10/13 02:01:07;;;;;;;;;;;10.70;86.80;;;;;;4989824;28;19922;-78
2022/10/13 02:03:40;;;;;;;;;;;10.70;86.80;;;;;;5003247;28;19914;-78
2022/10/13 02:06:12;;;;;;;;;;;10.70;86.70;;;;;;4992702;28;19921;-78
2022/10/13 02:08:50;;;;;;;;;;;10.70;86.70;;;;;;4989073;28;20382;-79
2022/10/13 02:11:20;;;;;;;;;;;10.70;86.70;;;;;;4989681;28;19921;-79
2022/10/13 02:13:53;;;;;;;;;;;10.80;86.80;;;;;;4989723;28;20056;-79
2022/10/13 02:16:22;;;;;;;;;;;10.70;86.70;;;;;;5004256;28;19914;-78
2022/10/13 02:18:48;;;;;;;;;;;10.80;86.90;;;;;;4988002;28;19932;-79
2022/10/13 02:21:14;;;;;;;;;;;10.80;86.70;;;;;;4993100;28;19914;-79
2022/10/13 02:23:41;;;;;;;;;;;10.80;86.50;;;;;;4992020;28;19964;-79
2022/10/13 02:26:07;;;;;;;;;;;10.80;86.70;;;;;;4986924;28;19920;-79
2022/10/13 02:28:35;;;;;;;;;;;10.80;86.80;;;;;;5000806;28;20348;-79
2022/10/13 02:31:00;;;;;;;;;;;10.90;86.70;;;;;;4990029;28;19922;-80
2022/10/13 02:33:26;;;;;;;;;;;10.90;86.80;;;;;;4992980;28;20332;-80
2022/10/13 02:35:51;;;;;;;;;;;10.90;86.80;;;;;;4996414;28;19917;-78
2022/10/13 02:38:17;;;;;;;;;;;10.90;86.70;;;;;;4993716;28;19937;-79
2022/10/13 02:40:42;;;;;;;;;;;10.90;86.80;;;;;;4985519;28;19914;-79
2022/10/13 02:43:08;;;;;;;;;;;10.90;86.80;;;;;;4987619;28;19921;-79
2022/10/13 02:45:33;;;;;;;;;;;10.90;86.90;;;;;;4993338;28;20320;-79
2022/10/13 02:47:59;;;;;;;;;;;11.00;86.80;;;;;;4993674;28;19943;-79
2022/10/13 02:50:24;;;;;;;;;;;11.00;87.00;;;;;;4990462;28;19921;-79
2022/10/13 02:52:50;;;;;;;;;;;11.00;86.90;;;;;;4997802;28;20014;-79
2022/10/13 02:55:15;;;;;;;;;;;11.00;86.90;;;;;;4997138;28;20440;-78
2022/10/13 02:57:40;;;;;;;;;;;11.00;86.90;;;;;;4994029;28;19922;-78
2022/10/13 03:00:06;;;;;;;;;;;11.10;86.60;;;;;;5000839;28;19960;-78
2022/10/13 03:02:32;;;;;;;;;;;11.20;86.70;;;;;;4992991;28;19913;-79
2022/10/13 03:04:57;;;;;;;;;;;11.10;86.80;;;;;;5003577;28;19913;-79
2022/10/13 03:07:22;;;;;;;;;;;11.20;86.80;;;;;;4998397;28;20302;-79
2022/10/13 03:09:48;;;;;;;;;;;11.10;86.60;;;;;;4997179;28;19918;-79
2022/10/13 03:12:14;;;;;;;;;;;11.20;86.60;;;;;;4991245;28;19932;-79
2022/10/13 03:14:39;;;;;;;;;;;11.20;86.60;;;;;;4990843;28;19920;-79
2022/10/13 03:17:05;;;;;;;;;;;11.30;86.70;;;;;;4995059;28;19920;-79
2022/10/13 03:19:30;;;;;;;;;;;11.20;86.60;;;;;;5000393;28;20406;-79
2022/10/13 03:21:56;;;;;;;;;;;11.20;86.70;;;;;;5004227;28;19924;-80
2022/10/13 03:24:22;;;;;;;;;;;11.30;86.80;;;;;;4993985;28;19914;-79
2022/10/13 03:26:47;;;;;;;;;;;11.30;86.50;;;;;;4992981;28;19918;-79
2022/10/13 03:29:14;;;;;;;;;;;11.30;86.60;;;;;;4993014;28;20446;-79
2022/10/13 03:31:40;;;;;;;;;;;11.30;86.60;;;;;;4996853;28;19926;-79
2022/10/13 03:34:06;;;;;;;;;;;11.30;86.60;;;;;;4994522;28;19921;-79
2022/10/13 03:36:31;;;;;;;;;;;11.30;86.60;;;;;;4996232;28;19917;-78
2022/10/13 03:38:57;;;;;;;;;;;11.30;86.60;;;;;;4998020;28;19996;-78
2022/10/13 03:41:22;;;;;;;;;;;11.30;86.70;;;;;;4995435;28;19914;-79
2022/10/13 03:43:47;;;;;;;;;;;11.30;86.80;;;;;;5001064;28;19913;-79
2022/10/13 03:46:14;;;;;;;;;;;11.30;86.90;;;;;;4998970;28;20004;-79
2022/10/13 03:48:40;;;;;;;;;;;11.30;87.00;;;;;;4997370;28;20390;-79
2022/10/13 03:51:14;;;;;;;;;;;11.30;86.90;;;;;;4997028;28;19926;-79
2022/10/13 03:53:39;;;;;;;;;;;11.30;87.10;;;;;;4999564;28;19957;-79
2022/10/13 03:56:05;;;;;;;;;;;11.30;87.00;;;;;;4996355;28;20374;-79
2022/10/13 03:58:30;;;;;;;;;;;11.30;87.00;;;;;;4998163;28;20279;-78
2022/10/13 04:01:00;;;;;;;;;;;11.20;87.20;;;;;;4997642;28;19956;-78
2022/10/13 04:03:26;;;;;;;;;;;11.20;87.20;;;;;;4997118;28;19910;-78
2022/10/13 04:05:51;;;;;;;;;;;11.20;87.20;;;;;;4997597;28;19921;-81
2022/10/13 04:08:17;;;;;;;;;;;11.10;87.10;;;;;;4999611;28;19913;-79
2022/10/13 04:10:42;;;;;;;;;;;11.10;87.30;;;;;;4987814;28;19914;-79
2022/10/13 04:13:08;;;;;;;;;;;11.10;87.20;;;;;;4992300;28;19929;-79
2022/10/13 04:15:37;;;;;;;;;;;11.10;87.30;;;;;;4998955;28;20410;-78
2022/10/13 04:18:03;;;;;;;;;;;11.20;87.20;;;;;;4995205;28;19914;-78
2022/10/13 04:20:29;;;;;;;;;;;11.20;87.00;;;;;;5002797;28;19929;-77
2022/10/13 04:22:54;;;;;;;;;;;11.30;87.00;;;;;;5002335;28;19914;-79
2022/10/13 04:25:19;;;;;;;;;;;11.30;86.90;;;;;;4987848;28;20013;-77
2022/10/13 04:27:47;;;;;;;;;;;11.20;87.00;;;;;;4982867;28;19960;-77
2022/10/13 04:30:12;;;;;;;;;;;11.30;87.00;;;;;;4986675;28;19929;-78
2022/10/13 04:32:38;;;;;;;;;;;11.20;87.00;;;;;;4982191;28;20306;-78
2022/10/13 04:35:03;;;;;;;;;;;11.20;87.30;;;;;;4989192;28;19924;-77
2022/10/13 04:37:29;;;;;;;;;;;11.20;87.10;;;;;;4993199;28;20349;-78
2022/10/13 04:39:54;;;;;;;;;;;11.20;87.20;;;;;;4993204;28;19922;-78
2022/10/13 04:42:20;;;;;;;;;;;11.20;87.30;;;;;;4994569;28;19913;-78
2022/10/13 04:44:45;;;;;;;;;;;11.20;87.30;;;;;;4995181;28;19957;-78
2022/10/13 04:47:11;;;;;;;;;;;11.20;87.20;;;;;;5011896;28;19914;-77
2022/10/13 04:49:36;;;;;;;;;;;11.30;87.20;;;;;;4995021;28;19924;-78
2022/10/13 04:52:01;;;;;;;;;;;11.30;87.30;;;;;;4998488;28;19918;-77
2022/10/13 04:54:27;;;;;;;;;;;11.30;87.30;;;;;;5002489;28;20301;-78
2022/10/13 04:56:52;;;;;;;;;;;11.30;87.30;;;;;;5003810;28;19937;-77
2022/10/13 04:59:18;;;;;;;;;;;11.30;87.30;;;;;;5001782;28;19910;-77
2022/10/13 05:01:43;;;;;;;;;;;11.30;87.30;;;;;;5000086;28;19917;-77
2022/10/13 05:04:09;;;;;;;;;;;11.30;87.30;;;;;;4998752;28;20333;-77
2022/10/13 05:06:36;;;;;;;;;;;11.40;87.30;;;;;;5015732;28;19909;-77
2022/10/13 05:09:02;;;;;;;;;;;11.40;87.20;;;;;;4994576;28;19940;-78
2022/10/13 05:11:28;;;;;;;;;;;11.40;87.20;;;;;;4994654;28;19922;-77
2022/10/13 05:13:54;;;;;;;;;;;11.40;87.40;;;;;;4994915;28;20370;-77
2022/10/13 05:16:21;;;;;;;;;;;11.40;87.40;;;;;;4994459;28;19945;-77
2022/10/13 05:18:46;;;;;;;;;;;11.40;87.30;;;;;;5004388;28;19917;-78
2022/10/13 05:21:13;;;;;;;;;;;11.40;87.50;;;;;;4995444;28;19914;-77
2022/10/13 05:23:39;;;;;;;;;;;11.40;87.50;;;;;;5001181;28;19918;-77
2022/10/13 05:26:06;;;;;;;;;;;11.40;87.40;;;;;;4997164;28;19928;-78
2022/10/13 05:28:31;;;;;;;;;;;11.40;87.40;;;;;;4988896;28;19960;-78
2022/10/13 05:30:57;;;;;;;;;;;11.40;87.50;;;;;;4983822;28;19909;-77
2022/10/13 05:33:22;;;;;;;;;;;11.40;87.50;;;;;;4991364;28;19925;-76
2022/10/13 05:35:48;;;;;;;;;;;11.30;87.40;;;;;;4990902;28;19968;-76
2022/10/13 05:38:13;;;;;;;;;;;11.30;87.60;;;;;;4990411;28;19914;-77
2022/10/13 05:40:38;;;;;;;;;;;11.30;87.60;;;;;;4990975;28;19918;-77
2022/10/13 05:43:04;;;;;;;;;;;11.30;87.70;;;;;;4990258;28;19920;-77
2022/10/13 05:45:31;;;;;;;;;;;11.30;87.60;;;;;;5009928;28;19910;-77
2022/10/13 05:47:57;;;;;;;;;;;11.40;87.60;;;;;;5008880;28;21225;-77
2022/10/13 05:50:22;;;;;;;;;;;11.40;87.50;;;;;;4993625;28;19953;-76
2022/10/13 05:52:49;;;;;;;;;;;11.30;87.50;;;;;;4996593;28;19913;-76
2022/10/13 05:55:15;;;;;;;;;;;11.30;87.50;;;;;;4991974;28;20321;-77
2022/10/13 05:57:43;;;;;;;;;;;11.30;87.50;;;;;;4988231;28;19921;-77
2022/10/13 06:00:10;;;;;;;;;;;11.30;87.60;;;;;;5003470;28;19997;-77
2022/10/13 06:02:51;;;;;;;;;;;11.30;87.40;;;;;;4988101;28;19972;-77
2022/10/13 06:05:17;;;;;;;;;;;11.30;87.50;;;;;;4987109;28;20037;-77
2022/10/13 06:07:44;;;;;;;;;;;11.40;87.60;;;;;;4986188;28;19917;-76
2022/10/13 06:10:10;;;;;;;;;;;11.30;87.60;;;;;;4986039;28;19918;-76
2022/10/13 06:12:36;;;;;;;;;;;11.40;87.50;;;;;;4987188;28;20053;-77
2022/10/13 06:15:01;;;;;;;;;;;11.40;87.30;;;;;;4993436;28;19920;-77
2022/10/13 06:17:26;;;;;;;;;;;11.40;87.40;;;;;;4984330;28;19917;-76
2022/10/13 06:19:52;;;;;;;;;;;11.40;87.40;;;;;;4990094;28;19937;-77
2022/10/13 06:22:17;;;;;;;;;;;11.50;87.10;;;;;;4992152;28;19910;-77
2022/10/13 06:24:43;;;;;;;;;;;11.50;87.10;;;;;;4990461;28;19914;-77
2022/10/13 06:27:09;;;;;;;;;;;11.60;87.00;;;;;;5013737;23;19926;-80
2022/10/13 06:29:35;;;;;;;;;;;11.50;86.80;;;;;;4990517;28;19925;-79
2022/10/13 06:32:00;;;;;;;;;;;11.60;87.00;;;;;;4988757;28;19922;-81
2022/10/13 06:34:26;;;;;;;;;;;11.50;87.00;;;;;;4989407;28;20431;-81
2022/10/13 06:36:51;;;;;;;;;;;11.50;86.90;;;;;;4990665;28;19918;-81
2022/10/13 06:39:17;;;;;;;;;;;11.50;86.80;;;;;;4987877;28;20364;-82
2022/10/13 06:41:42;;;;;;;;;;;11.60;86.80;;;;;;4987320;28;19914;-81
2022/10/13 06:44:08;;;;;;;;;;;11.70;86.60;;;;;;4989289;28;19921;-81
2022/10/13 06:46:33;;;;;;;;;;;11.60;86.50;;;;;;4989968;28;19957;-81
2022/10/13 06:48:58;;;;;;;;;;;11.70;86.60;;;;;;4988506;28;19914;-80
2022/10/13 06:51:24;;;;;;;;;;;11.70;86.30;;;;;;4986507;28;19914;-80
2022/10/13 06:53:49;;;;;;;;;;;11.70;86.40;;;;;;4991525;28;20005;-81
2022/10/13 06:56:15;;;;;;;;;;;11.70;86.50;;;;;;4993277;28;19914;-81
2022/10/13 06:58:40;;;;;;;;;;;11.80;86.50;;;;;;4992299;28;19960;-81
2022/10/13 07:01:06;;;;;;;;;;;11.80;86.30;;;;;;4986358;28;19914;-80
2022/10/13 07:03:32;;;;;;;;;;;11.80;86.50;;;;;;5002379;28;19921;-81
2022/10/13 07:06:00;;;;;;;;;;;11.80;86.30;;;;;;5007005;28;19902;-80
2022/10/13 07:08:26;;;;;;;;;;;11.90;86.30;;;;;;4993603;28;19965;-79
2022/10/13 07:10:51;;;;;;;;;;;11.90;86.20;;;;;;4986952;28;20013;-80
2022/10/13 07:13:17;;;;;;;;;;;11.90;85.80;;;;;;4993037;28;19980;-81
2022/10/13 07:15:42;;;;;;;;;;;12.00;85.40;;;;;;4990182;28;20303;-80
2022/10/13 07:18:08;;;;;;;;;;;12.10;84.90;;;;;;5003907;28;19914;-80
2022/10/13 07:20:34;;;;;;;;;;;12.20;84.00;;;;;;4984434;28;20016;-79
2022/10/13 07:22:59;;;;;;;;;;;12.20;84.40;;;;;;4991388;28;20395;-79
2022/10/13 07:25:24;;;;;;;;;;;12.20;84.50;;;;;;4987927;28;19933;-79
2022/10/13 07:27:50;;;;;;;;;;;12.30;84.70;;;;;;5000533;28;19924;-79
2022/10/13 07:30:15;;;;;;;;;;;12.30;84.70;;;;;;5011411;28;20331;-79
2022/10/13 07:32:41;;;;;;;;;;;12.40;84.20;;;;;;5008978;28;20484;-79
2022/10/13 07:35:07;;;;;;;;;;;12.50;83.40;;;;;;5006633;28;20318;-79
2022/10/13 07:37:33;;;;;;;;;;;12.50;83.40;;;;;;5022697;28;20399;-78
2022/10/13 07:39:59;;;;;;;;;;;12.60;83.60;;;;;;5007316;28;19968;-79
2022/10/13 07:42:25;;;;;;;;;;;12.70;83.70;;;;;;5005013;28;19920;-79
2022/10/13 07:44:50;;;;;;;;;;;12.80;83.20;;;;;;5007134;28;19917;-79
2022/10/13 07:47:15;;;;;;;;;;;12.90;82.90;;;;;;5001849;28;19914;-79
2022/10/13 07:49:41;;;;;;;;;;;13.10;82.00;;;;;;5003246;28;20344;-79
2022/10/13 07:52:06;;;;;;;;;;;13.20;81.80;;;;;;5004253;28;20303;-79
2022/10/13 07:54:32;;;;;;;;;;;13.30;81.60;;;;;;5013455;28;20302;-79
2022/10/13 07:56:57;;;;;;;;;;;13.30;81.50;;;;;;5008803;28;19917;-79
2022/10/13 07:59:23;;;;;;;;;;;13.30;81.10;;;;;;4999493;28;19917;-79
2022/10/13 08:01:48;;;;;;;;;;;13.50;80.60;;;;;;5002202;28;19988;-79
2022/10/13 08:04:13;;;;;;;;;;;13.50;79.90;;;;;;5001971;28;19917;-79
2022/10/13 08:06:40;;;;;;;;;;;13.60;79.90;;;;;;5004167;28;19920;-79
2022/10/13 08:09:06;;;;;;;;;;;13.60;80.00;;;;;;4997629;28;20000;-79
2022/10/13 08:11:31;;;;;;;;;;;13.60;79.70;;;;;;5007784;28;20004;-79
2022/10/13 08:13:59;;;;;;;;;;;13.70;79.30;;;;;;5001069;28;19917;-78
2022/10/13 08:16:29;;;;;;;;;;;13.70;79.50;;;;;;5018341;28;20040;-78
2022/10/13 08:18:55;;;;;;;;;;;13.80;79.30;;;;;;5006202;28;20071;-78
2022/10/13 08:21:21;;;;;;;;;;;13.90;79.20;;;;;;5011581;28;19914;-79
2022/10/13 08:23:47;;;;;;;;;;;13.80;79.00;;;;;;5008660;28;19921;-79
2022/10/13 08:26:23;;;;;;;;;;;13.90;79.10;;;;;;5002427;28;19921;-80
2022/10/13 08:28:48;;;;;;;;;;;14.00;79.40;;;;;;5013849;28;19929;-79
2022/10/13 08:31:14;;;;;;;;;;;14.00;80.00;;;;;;5008627;28;19913;-80
2022/10/13 08:33:40;;;;;;;;;;;14.10;79.80;;;;;;5008673;28;19976;-80
2022/10/13 08:36:06;;;;;;;;;;;14.10;79.00;;;;;;5005828;28;19968;-80
2022/10/13 08:38:31;;;;;;;;;;;14.10;78.70;;;;;;5004303;28;20216;-79
2022/10/13 08:40:57;;;;;;;;;;;14.20;78.10;;;;;;5004719;28;19918;-80
2022/10/13 08:43:23;;;;;;;;;;;14.30;78.40;;;;;;5002992;28;19948;-81
2022/10/13 08:45:49;;;;;;;;;;;14.30;78.20;;;;;;5009898;28;19933;-80
2022/10/13 08:48:20;;;;;;;;;;;14.50;77.90;;;;;;5004706;28;19932;-81
2022/10/13 08:50:49;;;;;;;;;;;14.60;77.30;;;;;;5005502;28;19917;-80
2022/10/13 08:53:17;;;;;;;;;;;14.60;77.20;;;;;;5011938;28;20343;-79
2022/10/13 08:55:44;;;;;;;;;;;14.70;76.50;;;;;;5011639;28;19913;-79
2022/10/13 08:58:16;;;;;;;;;;;14.70;76.60;;;;;;5013812;28;19920;-79
2022/10/13 09:00:41;;;;;;;;;;;14.70;76.60;;;;;;5011204;28;19921;-79
2022/10/13 09:03:19;;;;;;;;;;;14.80;76.30;;;;;;5013250;28;20280;-79
2022/10/13 09:05:52;;;;;;;;;;;14.80;76.00;;;;;;5016546;28;19924;-78
2022/10/13 09:08:19;;;;;;;;;;;14.80;76.00;;;;;;5007583;28;19957;-79
2022/10/13 09:10:46;;;;;;;;;;;14.90;76.20;;;;;;5010313;28;19909;-79
2022/10/13 09:13:11;;;;;;;;;;;15.00;75.80;;;;;;5014678;28;19917;-79
2022/10/13 09:15:44;;;;;;;;;;;15.10;75.70;;;;;;5025843;28;19913;-79
2022/10/13 09:18:10;;;;;;;;;;;15.20;75.20;;;;;;5015648;28;19917;-79
2022/10/13 09:20:36;;;;;;;;;;;15.20;74.80;;;;;;5034835;28;19905;-80
2022/10/13 09:23:02;;;;;;;;;;;15.20;75.10;;;;;;5027301;28;19997;-80
2022/10/13 09:25:27;;;;;;;;;;;15.40;75.50;;;;;;5016255;28;19928;-80
2022/10/13 09:27:55;;;;;;;;;;;15.50;74.80;;;;;;5009251;28;19921;-78
2022/10/13 09:30:24;;;;;;;;;;;15.80;73.70;;;;;;5011776;28;19917;-78
2022/10/13 09:32:50;;;;;;;;;;;16.00;73.10;;;;;;5002879;28;19925;-80
2022/10/13 09:35:20;;;;;;;;;;;16.00;73.50;;;;;;5009012;28;20055;-81
2022/10/13 09:37:48;;;;;;;;;;;16.10;73.50;;;;;;5022283;28;19921;-83
2022/10/13 09:40:20;;;;;;;;;;;16.30;72.40;;;;;;5011734;28;19913;-81
2022/10/13 09:42:50;;;;;;;;;;;16.20;71.70;;;;;;5009005;28;19921;-79
2022/10/13 09:45:17;;;;;;;;;;;16.20;71.70;;;;;;4998397;28;20390;-79
2022/10/13 09:47:50;;;;;;;;;;;16.40;71.10;;;;;;5007217;28;19956;-80
2022/10/13 09:50:17;;;;;;;;;;;16.30;71.40;;;;;;5017831;28;19898;-79
2022/10/13 09:52:44;;;;;;;;;;;16.50;71.00;;;;;;5019046;28;19918;-82
2022/10/13 09:55:26;;;;;;;;;;;16.60;71.20;;;;;;5013482;28;19913;-82
2022/10/13 09:57:54;;;;;;;;;;;16.70;71.20;;;;;;5013972;28;19924;-81
2022/10/13 10:00:20;;;;;;;;;;;16.80;70.50;;;;;;5012663;28;20409;-82
2022/10/13 10:03:05;;;;;;;;;;;16.80;69.90;;;;;;5011583;28;19909;-81
2022/10/13 10:05:49;;;;;;;;;;;16.90;69.40;;;;;;5015769;28;19913;-81
2022/10/13 10:08:33;;;;;;;;;;;16.80;69.10;;;;;;5013168;28;20004;-81
2022/10/13 10:11:00;;;;;;;;;;;16.80;69.50;;;;;;5012666;28;19913;-81
2022/10/13 10:13:26;;;;;;;;;;;16.70;69.70;;;;;;5009195;28;19917;-81
2022/10/13 10:16:01;;;;;;;;;;;16.90;69.30;;;;;;5010637;28;20433;-81
2022/10/13 10:18:34;;;;;;;;;;;17.00;68.90;;;;;;5009191;28;19920;-81
2022/10/13 10:21:05;;;;;;;;;;;17.00;68.20;;;;;;5021184;28;19935;-81
2022/10/13 10:23:39;;;;;;;;;;;16.80;68.30;;;;;;5019703;28;19913;-82
2022/10/13 10:26:09;;;;;;;;;;;16.80;68.90;;;;;;5011479;28;19945;-81
2022/10/13 10:28:35;;;;;;;;;;;16.90;68.90;;;;;;5010543;28;19918;-82
2022/10/13 10:31:00;;;;;;;;;;;17.00;68.30;;;;;;5012898;28;19914;-82
2022/10/13 10:33:35;;;;;;;;;;;16.90;67.60;;;;;;5012518;28;19914;-82
2022/10/13 10:36:18;;;;;;;;;;;16.90;68.40;;;;;;5010962;28;20025;-81
2022/10/13 10:38:49;;;;;;;;;;;17.00;68.70;;;;;;5007080;28;19936;-82
2022/10/13 10:41:22;;;;;;;;;;;17.00;68.40;;;;;;5009106;28;19967;-80
2022/10/13 10:43:54;;;;;;;;;;;17.00;67.80;;;;;;5010530;28;19914;-80
2022/10/13 10:46:24;;;;;;;;;;;16.90;68.10;;;;;;5013420;28;19914;-79
2022/10/13 10:48:52;;;;;;;;;;;17.00;68.10;;;;;;5010896;28;19917;-79
2022/10/13 10:51:18;;;;;;;;;;;17.10;67.80;;;;;;5011876;28;19914;-79
2022/10/13 10:54:02;;;;;;;;;;;17.10;68.10;;;;;;5011313;28;19944;-79
2022/10/13 10:56:39;;;;;;;;;;;17.10;67.20;;;;;;5010048;28;19960;-79
2022/10/13 10:59:07;;;;;;;;;;;17.30;66.80;;;;;;5009807;28;19917;-79
2022/10/13 11:01:41;;;;;;;;;;;17.20;67.10;;;;;;5008948;28;19964;-80
2022/10/13 11:04:30;;;;;;;;;;;17.30;66.70;;;;;;5013209;28;19916;-81
2022/10/13 11:06:55;;;;;;;;;;;17.30;67.40;;;;;;5007038;28;19999;-80
2022/10/13 11:09:39;;;;;;;;;;;17.40;66.60;;;;;;5006923;28;19949;-84
2022/10/13 11:12:21;;;;;;;;;;;17.30;66.70;;;;;;5023920;28;19917;-83
2022/10/13 11:14:52;;;;;;;;;;;17.40;67.40;;;;;;5017574;28;19918;-80
2022/10/13 11:17:18;;;;;;;;;;;17.40;67.80;;;;;;5007281;28;19913;-79
2022/10/13 11:19:46;;;;;;;;;;;17.30;66.40;;;;;;5016297;28;19918;-81
2022/10/13 11:22:13;;;;;;;;;;;17.50;66.90;;;;;;5015842;28;19920;-79
2022/10/13 11:24:39;;;;;;;;;;;17.40;67.30;;;;;;5018498;28;19917;-80
2022/10/13 11:27:10;;;;;;;;;;;17.50;66.80;;;;;;5013376;28;19968;-79
2022/10/13 11:29:42;;;;;;;;;;;17.50;66.70;;;;;;5014298;28;20449;-79
2022/10/13 11:32:40;;;;;;;;;;;17.40;66.60;;;;;;5015695;28;19917;-78
2022/10/13 11:35:06;;;;;;;;;;;17.30;66.60;;;;;;5015468;28;20347;-79
2022/10/13 11:37:38;;;;;;;;;;;17.30;66.80;;;;;;5012968;28;19921;-78
2022/10/13 11:40:22;;;;;;;;;;;17.30;66.80;;;;;;5020921;28;19913;-79
2022/10/13 11:42:55;;;;;;;;;;;17.20;66.90;;;;;;5019366;28;19909;-79
2022/10/13 11:45:26;;;;;;;;;;;17.10;67.20;;;;;;5036102;28;19963;-79
2022/10/13 11:48:12;;;;;;;;;;;17.00;67.70;;;;;;5034032;28;19917;-79
2022/10/13 11:50:56;;;;;;;;;;;17.00;68.20;;;;;;5033376;28;19920;-79
2022/10/13 11:53:23;;;;;;;;;;;17.00;68.20;;;;;;5034653;28;19920;-79
2022/10/13 11:55:52;;;;;;;;;;;17.10;68.10;;;;;;5024199;28;19917;-80
2022/10/13 11:58:21;;;;;;;;;;;17.20;67.00;;;;;;5027249;28;19985;-79
2022/10/13 12:01:00;;;;;;;;;;;17.30;67.00;;;;;;5031892;28;20008;-80
2022/10/13 12:03:31;;;;;;;;;;;17.40;67.10;;;;;;5035814;28;19909;-79
2022/10/13 12:06:00;;;;;;;;;;;17.50;66.50;;;;;;5033431;28;19916;-79
2022/10/13 12:08:26;;;;;;;;;;;17.50;66.60;;;;;;5016348;28;19913;-82
2022/10/13 12:10:56;;;;;;;;;;;17.60;66.60;;;;;;5018405;28;20008;-84
2022/10/13 12:13:25;;;;;;;;;;;17.60;66.10;;;;;;5025022;28;20357;-82
2022/10/13 12:16:05;;;;;;;;;;;17.50;65.90;;;;;;5015229;28;19920;-83
2022/10/13 12:18:35;;;;;;;;;;;17.40;66.10;;;;;;5014345;28;20052;-83
2022/10/13 12:21:02;;;;;;;;;;;17.30;66.90;;;;;;5014686;28;19920;-84
2022/10/13 12:23:28;;;;;;;;;;;17.30;66.90;;;;;;5014883;28;19953;-83
2022/10/13 12:25:57;;;;;;;;;;;17.30;66.90;;;;;;5020330;28;19913;-83
2022/10/13 12:28:24;;;;;;;;;;;17.20;68.00;;;;;;5039699;23;19925;-83
2022/10/13 12:30:54;;;;;;;;;;;17.30;67.30;;;;;;5048178;28;20081;-83
2022/10/13 12:33:27;;;;;;;;;;;17.20;67.70;;;;;;5053207;28;20025;-83
2022/10/13 12:35:53;;;;;;;;;;;17.20;67.90;;;;;;5052723;28;20291;-82
2022/10/13 12:38:19;;;;;;;;;;;17.20;67.30;;;;;;5053808;28;20012;-83
2022/10/13 12:40:48;;;;;;;;;;;17.10;67.60;;;;;;5054651;28;19967;-84
2022/10/13 12:43:18;;;;;;;;;;;17.10;67.60;;;;;;5051383;28;19921;-83
2022/10/13 12:45:44;;;;;;;;;;;17.20;67.50;;;;;;5068027;28;19917;-86
2022/10/13 12:48:28;;;;;;;;;;;17.20;67.50;;;;;;5031361;28;19967;-84
2022/10/13 12:50:54;;;;;;;;;;;17.20;67.30;;;;;;5026378;28;19960;-83
2022/10/13 12:53:26;;;;;;;;;;;17.10;67.40;;;;;;5030723;28;19963;-84
2022/10/13 12:55:57;;;;;;;;;;;17.10;66.80;;;;;;5033613;28;19920;-86
2022/10/13 12:58:23;;;;;;;;;;;17.00;67.60;;;;;;5031089;28;20299;-87
2022/10/13 13:00:56;;;;;;;;;;;17.10;67.50;;;;;;5041861;28;19914;-85
2022/10/13 13:03:24;;;;;;;;;;;17.00;67.80;;;;;;5076454;28;19916;-85
2022/10/13 13:06:08;;;;;;;;;;;16.90;68.30;;;;;;5053448;28;20003;-86
2022/10/13 13:08:33;;;;;;;;;;;16.80;69.80;;;;;;5048734;28;19924;-85
2022/10/13 13:11:02;;;;;;;;;;;16.70;70.80;;;;;;5035540;28;19913;-83
2022/10/13 13:13:29;;;;;;;;;;;16.70;71.90;;;;;;5035904;28;19971;-82
2022/10/13 13:16:14;;;;;;;;;;;16.50;73.40;;;;;;5036981;28;19909;-84
2022/10/13 13:18:41;;;;;;;;;;;16.50;73.80;;;;;;5037623;28;19917;-84
2022/10/13 13:21:08;;;;;;;;;;;16.30;74.60;;;;;;5033878;28;19909;-82
2022/10/13 13:23:34;;;;;;;;;;;16.30;75.40;;;;;;5036090;28;19925;-83
2022/10/13 13:26:20;;;;;;;;;;;16.20;76.10;;;;;;5048906;28;19966;-83
2022/10/13 13:28:52;;;;;;;;;;;16.30;76.40;;;;;;5032212;28;19917;-83
2022/10/13 13:31:20;;;;;;;;;;;16.30;76.70;;;;;;5039610;28;19917;-83
2022/10/13 13:33:46;;;;;;;;;;;16.20;77.00;;;;;;5037403;28;19923;-84
2022/10/13 13:36:20;;;;;;;;;;;16.30;77.30;;;;;;5043257;28;19992;-83
2022/10/13 13:38:46;;;;;;;;;;;16.20;78.10;;;;;;5054652;28;19909;-83
2022/10/13 13:41:12;;;;;;;;;;;16.20;78.20;;;;;;5054164;28;20377;-83
2022/10/13 13:43:39;;;;;;;;;;;16.30;77.70;;;;;;5039258;28;19925;-83
2022/10/13 13:46:05;;;;;;;;;;;16.30;78.50;;;;;;5053709;28;19909;-83
2022/10/13 13:48:30;;;;;;;;;;;16.50;78.90;;;;;;5053112;28;19909;-83
2022/10/13 13:50:56;;;;;;;;;;;16.50;78.70;;;;;;5039173;28;19936;-83
2022/10/13 13:53:22;;;;;;;;;;;16.60;78.00;;;;;;5037220;28;19927;-84
2022/10/13 13:55:48;;;;;;;;;;;16.60;77.80;;;;;;5034519;28;19952;-84
2022/10/13 13:58:13;;;;;;;;;;;16.50;78.40;;;;;;5023388;28;20395;-84
2022/10/13 14:00:39;;;;;;;;;;;16.50;79.00;;;;;;5033444;28;19909;-83
2022/10/13 14:03:04;;;;;;;;;;;16.40;79.10;;;;;;5031607;28;20007;-85
2022/10/13 14:05:30;;;;;;;;;;;16.50;79.20;;;;;;5030138;28;19913;-84
2022/10/13 14:07:56;;;;;;;;;;;16.40;79.10;;;;;;5029617;28;19913;-83
2022/10/13 14:10:23;;;;;;;;;;;16.40;78.80;;;;;;5030623;28;19987;-85
2022/10/13 14:12:49;;;;;;;;;;;16.40;79.50;;;;;;5017006;28;20435;-84
2022/10/13 14:15:14;;;;;;;;;;;16.50;79.40;;;;;;5036878;28;20286;-85
2022/10/13 14:17:40;;;;;;;;;;;16.30;78.80;;;;;;5046009;28;19919;-84
2022/10/13 14:20:06;;;;;;;;;;;16.30;78.10;;;;;;5075393;28;20395;-84
2022/10/13 14:22:32;;;;;;;;;;;16.30;78.20;;;;;;5032816;28;20077;-85